Time;durP1;ratioP1;P1;durP2;ratioP2;P2;SDS_P1;SDS_P2;PMS_P1;PMS_P2;Temp;Humidity;BMP_temperature;BMP_pressure;BME280_temperature;BME280_humidity;BME280_pressure;Samples;Min_cycle;Max_cycle;Signal;HPM_P1;HPM_P2
2023/07/31 00:01:08;;;;;;;35.78;25.70;;;;;;;27.82;100.00;97338.06;4841236;29;20451;-64
2023/07/31 00:03:37;;;;;;;34.45;26.17;;;;;;;27.79;100.00;97336.81;4843928;29;20061;-65
2023/07/31 00:06:07;;;;;;;35.88;26.20;;;;;;;27.80;100.00;97340.31;4837843;29;20072;-65
2023/07/31 00:08:36;;;;;;;33.80;25.80;;;;;;;27.79;100.00;97336.03;4825508;29;20069;-64
2023/07/31 00:11:05;;;;;;;34.63;25.33;;;;;;;27.79;100.00;97341.47;4838697;29;20432;-64
2023/07/31 00:13:34;;;;;;;42.88;26.77;;;;;;;27.79;100.00;97341.47;4840503;29;20061;-64
2023/07/31 00:16:04;;;;;;;38.90;26.50;;;;;;;27.77;100.00;97338.28;4845083;29;20056;-65
2023/07/31 00:18:33;;;;;;;33.50;25.30;;;;;;;27.77;100.00;97343.72;4840346;29;20164;-65
2023/07/31 00:21:03;;;;;;;35.60;24.67;;;;;;;27.77;100.00;97343.72;4828635;29;20056;-64
2023/07/31 00:23:32;;;;;;;33.13;25.75;;;;;;;27.77;100.00;97333.63;4828618;29;20061;-63
2023/07/31 00:26:01;;;;;;;35.67;25.55;;;;;;;27.76;100.00;97334.75;4820584;29;20502;-65
2023/07/31 00:28:31;;;;;;;36.13;25.08;;;;;;;27.78;100.00;97348.84;4845343;29;20658;-64
2023/07/31 00:31:01;;;;;;;32.42;25.83;;;;;;;27.79;100.00;97342.25;4842028;29;20052;-64
2023/07/31 00:33:32;;;;;;;40.25;26.65;;;;;;;27.80;100.00;97343.84;4843919;29;20060;-64
2023/07/31 00:36:03;;;;;;;37.10;26.90;;;;;;;27.80;100.00;97345.75;4837759;29;20129;-65
2023/07/31 00:38:33;;;;;;;38.70;24.95;;;;;;;27.82;100.00;97338.84;4834094;29;20380;-64
2023/07/31 00:41:02;;;;;;;37.20;25.23;;;;;;;27.84;100.00;97343.97;4843524;29;20077;-63
2023/07/31 00:43:31;;;;;;;43.00;27.70;;;;;;;27.85;100.00;97340.91;4842325;29;20057;-63
2023/07/31 00:46:01;;;;;;;36.25;25.38;;;;;;;27.86;100.00;97344.41;4841315;29;20066;-64
2023/07/31 00:48:32;;;;;;;38.15;26.75;;;;;;;27.88;100.00;97344.88;4827609;29;20057;-65
2023/07/31 00:51:02;;;;;;;40.72;26.20;;;;;;;27.89;100.00;97346.44;4819042;29;20485;-65
2023/07/31 00:53:31;;;;;;;41.38;26.27;;;;;;;27.91;100.00;97341.47;4828585;29;20065;-65
2023/07/31 00:56:01;;;;;;;40.15;26.85;;;;;;;27.95;100.00;97342.38;4827691;29;20152;-65
2023/07/31 00:58:31;;;;;;;39.40;25.63;;;;;;;27.99;100.00;97352.25;4832936;29;20077;-65
2023/07/31 01:01:00;;;;;;;50.42;28.88;;;;;;;28.03;100.00;97352.38;4835087;29;20050;-65
2023/07/31 01:03:30;;;;;;;33.13;25.50;;;;;;;28.05;100.00;97356.38;4841332;29;20113;-65
2023/07/31 01:06:15;;;;;;;39.97;26.25;;;;;;;28.07;100.00;97364.19;4819586;29;20046;-66
2023/07/31 01:08:48;;;;;;;44.63;28.58;;;;;;;28.09;100.00;97359.19;4830892;29;20113;-65
2023/07/31 01:11:28;;;;;;;40.00;27.20;;;;;;;28.11;100.00;97359.66;4839446;29;20057;-65
2023/07/31 01:13:59;;;;;;;38.42;25.48;;;;;;;28.16;100.00;97355.94;4829101;29;20056;-65
2023/07/31 01:16:28;;;;;;;35.50;26.27;;;;;;;28.23;100.00;97365.16;4839944;29;20053;-65
2023/07/31 01:18:58;;;;;;;41.42;27.05;;;;;;;28.29;100.00;97373.88;4833312;29;20053;-64
2023/07/31 01:21:37;;;;;;;37.47;27.30;;;;;;;28.33;100.00;97363.88;4826115;29;20049;-65
2023/07/31 01:24:27;;;;;;;40.85;27.90;;;;;;;28.39;100.00;97378.88;4840832;29;20156;-65
2023/07/31 01:27:14;;;;;;;41.92;28.75;;;;;;;28.44;100.00;97379.44;4826400;29;20202;-63
2023/07/31 01:30:14;;;;;;;48.08;30.80;;;;;;;28.50;100.00;97383.50;4825388;29;20636;-64
2023/07/31 01:32:48;;;;;;;41.28;30.55;;;;;;;28.56;100.00;97381.38;4825346;29;20053;-64
2023/07/31 01:35:18;;;;;;;42.65;30.20;;;;;;;28.61;100.00;97389.31;4826352;29;20069;-64
2023/07/31 01:37:47;;;;;;;40.72;28.55;;;;;;;28.68;100.00;97377.84;4834575;29;20124;-64
2023/07/31 01:40:17;;;;;;;42.17;28.60;;;;;;;28.71;100.00;97382.63;4834576;29;20053;-64
2023/07/31 01:42:46;;;;;;;35.65;26.58;;;;;;;28.79;100.00;97387.16;4825865;29;20058;-65
2023/07/31 01:45:16;;;;;;;41.47;26.08;;;;;;;28.86;100.00;97395.53;4827219;29;20054;-64
2023/07/31 01:47:46;;;;;;;33.00;22.42;;;;;;;28.91;100.00;97396.13;4835277;29;20064;-64
2023/07/31 01:50:17;;;;;;;31.40;22.80;;;;;;;28.98;100.00;97404.53;4842594;29;20062;-65
2023/07/31 01:52:46;;;;;;;27.33;20.02;;;;;;;29.10;100.00;97402.91;4829225;29;20153;-65
2023/07/31 01:55:15;;;;;;;29.27;19.60;;;;;;;29.31;100.00;97393.44;4832725;29;20121;-65
2023/07/31 01:57:45;;;;;;;24.13;18.13;;;;;;;29.65;100.00;97405.69;4828972;29;20045;-64
2023/07/31 02:00:14;;;;;;;25.70;17.02;;;;;;;29.89;100.00;97413.00;4839481;29;20117;-66
2023/07/31 02:02:44;;;;;;;22.77;16.63;;;;;;;30.22;100.00;97407.22;4828717;29;20050;-65
2023/07/31 02:05:14;;;;;;;21.42;14.00;;;;;;;30.41;100.00;97417.44;4839623;29;20060;-65
2023/07/31 02:07:43;;;;;;;17.58;13.95;;;;;;;30.85;100.00;97412.69;4823744;29;20046;-65
2023/07/31 02:10:12;;;;;;;16.80;12.52;;;;;;;31.03;100.00;97424.81;4826907;29;20071;-65
2023/07/31 02:12:42;;;;;;;17.20;12.32;;;;;;;31.33;100.00;97428.63;4837613;29;20046;-65
2023/07/31 02:15:11;;;;;;;21.70;13.13;;;;;;;31.50;100.00;97433.69;4825965;29;20052;-64
2023/07/31 02:17:41;;;;;;;16.42;11.25;;;;;;;31.70;100.00;97428.22;4836288;29;20056;-65
2023/07/31 02:20:11;;;;;;;15.85;12.00;;;;;;;31.76;100.00;97438.53;4822740;29;20781;-65
2023/07/31 02:22:41;;;;;;;18.33;12.20;;;;;;;32.01;100.00;97431.56;4841670;29;20057;-65
2023/07/31 02:25:10;;;;;;;13.90;11.75;;;;;;;32.31;98.82;97439.19;4830357;29;20114;-65
2023/07/31 02:27:40;;;;;;;18.48;12.93;;;;;;;32.22;98.20;97436.66;4838867;29;20045;-65
2023/07/31 02:30:09;;;;;;;15.30;11.10;;;;;;;32.52;99.82;97432.09;4826922;29;20061;-65
2023/07/31 02:32:39;;;;;;;14.55;11.23;;;;;;;32.65;98.10;97431.94;4828628;29;20118;-66
2023/07/31 02:35:09;;;;;;;19.50;12.02;;;;;;;32.84;95.19;97434.59;4826221;29;20427;-65
2023/07/31 02:37:38;;;;;;;16.23;11.60;;;;;;;32.97;93.80;97438.72;4840977;29;20054;-64
2023/07/31 02:40:08;;;;;;;16.80;12.65;;;;;;;32.96;94.41;97442.59;4828170;29;20170;-64
2023/07/31 02:42:37;;;;;;;20.77;11.55;;;;;;;32.91;96.07;97446.47;4826450;29;20065;-64
2023/07/31 02:45:08;;;;;;;14.90;11.88;;;;;;;32.97;94.62;97442.22;4812986;29;20053;-65
2023/07/31 02:47:38;;;;;;;18.55;11.70;;;;;;;32.97;92.90;97444.19;4826850;29;20054;-64
2023/07/31 02:50:07;;;;;;;14.60;11.35;;;;;;;33.02;93.11;97446.59;4829410;29;20050;-65
2023/07/31 02:52:37;;;;;;;16.05;11.18;;;;;;;33.04;92.96;97452.53;4840048;29;20097;-64
2023/07/31 02:55:07;;;;;;;13.68;10.65;;;;;;;33.11;92.57;97449.88;4828827;29;20634;-65
2023/07/31 02:57:36;;;;;;;19.23;9.45;;;;;;;32.93;92.51;97452.34;4824862;29;20061;-65
2023/07/31 03:00:06;;;;;;;16.52;9.73;;;;;;;32.87;93.86;97453.06;4811972;29;20076;-65
2023/07/31 03:02:36;;;;;;;15.57;8.20;;;;;;;32.75;91.91;97458.75;4816539;29;20380;-64
2023/07/31 03:05:05;;;;;;;10.23;7.53;;;;;;;32.69;91.91;97466.47;4821998;29;20069;-64
2023/07/31 03:07:35;;;;;;;10.70;7.60;;;;;;;32.60;94.19;97460.44;4828780;29;20077;-64
2023/07/31 03:10:06;;;;;;;11.20;6.50;;;;;;;32.68;93.38;97458.63;4843921;29;20050;-65
2023/07/31 03:12:35;;;;;;;9.02;6.50;;;;;;;32.47;92.28;97470.00;4844241;29;20129;-65
2023/07/31 03:15:06;;;;;;;8.45;6.22;;;;;;;32.24;92.90;97466.44;4836543;29;20056;-65
2023/07/31 03:17:35;;;;;;;10.68;6.63;;;;;;;32.18;93.57;97465.16;4825661;29;20408;-66
2023/07/31 03:20:06;;;;;;;15.25;6.10;;;;;;;32.17;94.73;97458.09;4828619;29;20495;-64
2023/07/31 03:22:36;;;;;;;12.77;6.90;;;;;;;32.22;97.10;97455.06;4827918;29;20049;-64
2023/07/31 03:25:06;;;;;;;10.68;6.28;;;;;;;32.31;97.14;97467.34;4826025;29;21349;-64
2023/07/31 03:27:36;;;;;;;10.95;5.68;;;;;;;32.21;93.50;97467.97;4816939;29;20053;-63
2023/07/31 03:30:06;;;;;;;15.32;6.22;;;;;;;32.32;95.09;97466.22;4827774;29;20050;-64
2023/07/31 03:32:36;;;;;;;12.68;5.55;;;;;;;32.25;92.43;97457.88;4832350;29;20079;-65
2023/07/31 03:35:07;;;;;;;10.18;6.00;;;;;;;32.31;92.77;97469.34;4829163;29;20049;-65
2023/07/31 03:37:37;;;;;;;8.98;5.60;;;;;;;32.39;92.47;97476.50;4842662;29;20053;-65
2023/07/31 03:40:08;;;;;;;9.57;5.22;;;;;;;32.45;88.32;97473.09;4825898;29;20061;-65
2023/07/31 03:42:37;;;;;;;11.07;5.07;;;;;;;32.58;86.57;97473.69;4842285;29;20053;-65
2023/07/31 03:45:07;;;;;;;6.72;5.22;;;;;;;32.71;90.40;97469.63;4827517;29;20137;-65
2023/07/31 03:47:37;;;;;;;10.30;5.93;;;;;;;32.93;91.50;97477.03;4838144;29;20359;-65
2023/07/31 03:50:07;;;;;;;19.40;6.55;;;;;;;33.10;89.78;97474.97;4831889;29;20064;-65
2023/07/31 03:52:36;;;;;;;10.27;5.80;;;;;;;33.24;84.93;97481.44;4825817;29;20113;-66
2023/07/31 03:55:06;;;;;;;10.88;5.68;;;;;;;33.21;80.88;97484.16;4832833;29;20058;-66
2023/07/31 03:57:35;;;;;;;7.50;5.28;;;;;;;33.34;87.02;97485.50;4837961;29;20190;-64
2023/07/31 04:00:05;;;;;;;9.98;5.72;;;;;;;33.48;87.92;97480.22;4829650;29;20049;-66
2023/07/31 04:02:38;;;;;;;9.50;5.57;;;;;;;33.57;89.16;97488.97;4836605;29;20057;-66
2023/07/31 04:05:09;;;;;;;9.63;5.38;;;;;;;33.83;87.65;97485.41;4839909;29;20476;-66
2023/07/31 04:07:38;;;;;;;9.43;5.75;;;;;;;33.80;81.49;97492.44;4847946;29;20049;-65
2023/07/31 04:10:08;;;;;;;10.25;5.93;;;;;;;33.86;82.39;97497.63;4820735;29;20061;-66
2023/07/31 04:12:40;;;;;;;7.68;5.45;;;;;;;34.00;81.79;97495.81;4842845;29;20169;-66
2023/07/31 04:15:11;;;;;;;10.25;5.38;;;;;;;34.04;80.41;97490.34;4843135;29;20057;-66
2023/07/31 04:17:42;;;;;;;8.23;5.88;;;;;;;34.10;80.63;97491.59;4836855;29;20050;-67
2023/07/31 04:20:12;;;;;;;8.70;5.38;;;;;;;34.35;82.29;97497.38;4846883;29;20065;-66
2023/07/31 04:22:42;;;;;;;9.13;5.40;;;;;;;34.27;77.47;97496.50;4840475;29;20046;-62
2023/07/31 04:25:13;;;;;;;7.70;5.55;;;;;;;34.23;76.29;97492.94;4826404;29;20073;-66
2023/07/31 04:27:43;;;;;;;8.43;5.30;;;;;;;34.27;79.47;97489.06;4829292;29;20152;-66
2023/07/31 04:30:12;;;;;;;6.32;5.28;;;;;;;34.43;78.95;97493.56;4841771;29;20601;-65
2023/07/31 04:32:41;;;;;;;10.38;5.32;;;;;;;34.72;76.24;97490.69;4840581;29;20073;-66
2023/07/31 04:35:11;;;;;;;11.90;5.65;;;;;;;34.75;76.75;97502.09;4841018;29;20553;-66
2023/07/31 04:37:41;;;;;;;7.60;5.47;;;;;;;34.89;75.91;97496.72;4840733;29;20057;-66
2023/07/31 04:40:11;;;;;;;11.55;5.35;;;;;;;34.91;72.59;97499.88;4827905;29;20078;-66
2023/07/31 04:42:41;;;;;;;12.75;5.70;;;;;;;35.13;73.58;97501.63;4841733;29;20050;-66
2023/07/31 04:45:10;;;;;;;10.02;6.00;;;;;;;35.08;71.92;97508.28;4840825;29;20064;-66
2023/07/31 04:47:39;;;;;;;9.70;5.93;;;;;;;35.36;74.29;97504.16;4839178;29;20164;-66
2023/07/31 04:50:09;;;;;;;11.13;6.35;;;;;;;35.47;76.17;97503.03;4838970;29;20084;-66
2023/07/31 04:52:39;;;;;;;8.73;5.45;;;;;;;35.51;70.03;97495.59;4824238;29;20556;-66
2023/07/31 04:55:09;;;;;;;6.28;5.43;;;;;;;35.50;72.56;97495.97;4836574;29;20058;-66
2023/07/31 04:57:38;;;;;;;10.27;5.45;;;;;;;35.27;71.97;97500.97;4836865;29;20061;-66
2023/07/31 05:00:08;;;;;;;12.15;5.97;;;;;;;35.46;73.06;97498.72;4824210;29;20543;-65
2023/07/31 05:02:38;;;;;;;11.40;6.43;;;;;;;35.36;69.43;97501.41;4840499;29;20352;-65
2023/07/31 05:05:07;;;;;;;9.15;6.22;;;;;;;35.37;75.29;97508.47;4829291;29;20379;-65
2023/07/31 05:07:37;;;;;;;14.20;6.30;;;;;;;35.81;70.53;97502.84;4838787;29;20078;-65
2023/07/31 05:10:07;;;;;;;10.00;6.47;;;;;;;35.83;70.24;97506.78;4838444;29;20957;-65
2023/07/31 05:12:37;;;;;;;13.18;7.22;;;;;;;35.90;68.24;97503.25;4841003;29;20514;-64
2023/07/31 05:15:07;;;;;;;8.20;6.07;;;;;;;35.84;73.47;97508.38;4840457;29;20049;-65
2023/07/31 05:17:36;;;;;;;15.18;7.22;;;;;;;35.30;74.33;97505.69;4840425;29;20056;-64
2023/07/31 05:20:09;;;;;;;15.57;7.00;;;;;;;35.16;71.37;97511.91;4833260;29;20473;-64
2023/07/31 05:22:38;;;;;;;15.70;7.80;;;;;;;35.03;74.10;97508.63;4843759;29;20050;-64
2023/07/31 05:25:07;;;;;;;11.80;7.13;;;;;;;34.56;74.08;97505.84;4838180;29;20538;-64
2023/07/31 05:27:37;;;;;;;13.63;7.45;;;;;;;34.25;77.18;97504.38;4826291;29;20445;-64
2023/07/31 05:30:07;;;;;;;10.85;7.68;;;;;;;34.53;74.78;97503.84;4830787;29;20065;-64
2023/07/31 05:32:36;;;;;;;11.38;6.80;;;;;;;34.42;74.76;97501.00;4840126;29;20091;-64
2023/07/31 05:35:06;;;;;;;9.00;6.95;;;;;;;35.02;76.14;97501.53;4840715;29;20061;-66
2023/07/31 05:37:35;;;;;;;10.63;7.05;;;;;;;34.86;72.02;97497.50;4839040;29;20064;-66
2023/07/31 05:40:05;;;;;;;11.15;6.82;;;;;;;35.32;72.05;97501.38;4825377;29;20076;-65
2023/07/31 05:42:38;;;;;;;13.30;6.65;;;;;;;35.52;69.51;97508.19;4837123;29;20174;-66
2023/07/31 05:45:09;;;;;;;11.85;6.90;;;;;;;35.64;69.92;97506.28;4830217;29;20084;-66
2023/07/31 05:47:38;;;;;;;11.25;7.18;;;;;;;35.66;73.71;97495.69;4838209;29;20052;-65
2023/07/31 05:50:08;;;;;;;13.50;5.97;;;;;;;35.75;70.60;97499.69;4823614;29;20065;-66
2023/07/31 05:52:38;;;;;;;10.15;6.78;;;;;;;35.83;73.82;97494.97;4821831;29;20050;-66
2023/07/31 05:55:08;;;;;;;10.23;7.05;;;;;;;35.81;72.16;97503.63;4835281;29;20177;-67
2023/07/31 05:57:39;;;;;;;10.85;8.13;;;;;;;35.84;68.91;97505.63;4821442;29;20082;-66
2023/07/31 06:00:11;;;;;;;12.75;7.65;;;;;;;35.57;67.73;97504.28;4840027;29;20053;-67
2023/07/31 06:02:40;;;;;;;11.40;7.75;;;;;;;35.54;68.93;97505.81;4840668;29;20050;-66
2023/07/31 06:05:10;;;;;;;18.73;8.20;;;;;;;35.34;69.21;97493.53;4823698;29;20046;-66
2023/07/31 06:07:39;;;;;;;11.25;7.15;;;;;;;35.10;70.74;97497.66;4825210;29;20550;-66
2023/07/31 06:10:09;;;;;;;10.10;7.93;;;;;;;34.82;71.47;97502.16;4838171;29;20076;-67
2023/07/31 06:12:38;;;;;;;10.57;8.15;;;;;;;34.91;72.98;97499.88;4817726;29;20057;-66
2023/07/31 06:15:08;;;;;;;13.80;8.85;;;;;;;34.84;70.76;97495.09;4839101;29;20068;-66
2023/07/31 06:17:37;;;;;;;13.40;8.70;;;;;;;35.04;71.45;97488.19;4840939;29;20445;-66
2023/07/31 06:20:08;;;;;;;10.00;7.53;;;;;;;35.21;68.83;97491.47;4835406;29;20052;-66
2023/07/31 06:22:38;;;;;;;11.55;7.03;;;;;;;35.54;71.65;97485.75;4821594;29;20431;-66
2023/07/31 06:25:10;;;;;;;9.40;7.20;;;;;;;35.47;68.67;97494.78;4841175;29;20144;-66
2023/07/31 06:27:43;;;;;;;8.85;6.72;;;;;;;35.24;73.62;97491.50;4837260;29;20100;-66
2023/07/31 06:30:13;;;;;;;13.23;7.13;;;;;;;34.86;70.85;97490.03;4825471;29;20394;-66
2023/07/31 06:32:42;;;;;;;11.02;7.47;;;;;;;34.62;74.22;97482.31;4838380;29;20478;-66
2023/07/31 06:35:12;;;;;;;13.50;7.78;;;;;;;34.44;75.59;97487.66;4820937;29;20065;-66
2023/07/31 06:37:44;;;;;;;9.60;7.43;;;;;;;34.37;78.10;97484.84;4821264;29;20138;-66
2023/07/31 06:40:13;;;;;;;8.50;6.80;;;;;;;34.28;80.29;97476.91;4834873;29;20141;-67
2023/07/31 06:42:43;;;;;;;11.98;6.90;;;;;;;34.11;78.18;97476.69;4806805;29;20145;-67
2023/07/31 06:45:13;;;;;;;9.77;7.43;;;;;;;34.05;80.66;97475.44;4828937;29;20064;-67
2023/07/31 06:47:54;;;;;;;12.95;7.20;;;;;;;34.09;81.21;97476.25;4805595;29;20140;-67
2023/07/31 06:50:24;;;;;;;10.27;7.07;;;;;;;34.35;79.98;97475.38;4836549;29;20054;-66
2023/07/31 06:52:54;;;;;;;9.85;7.50;;;;;;;34.49;76.42;97472.75;4828198;29;20505;-66
2023/07/31 06:55:24;;;;;;;12.38;7.53;;;;;;;34.67;77.54;97474.53;4835732;29;20074;-67
2023/07/31 06:57:55;;;;;;;9.68;7.88;;;;;;;34.60;72.23;97474.47;4838310;29;20053;-66
2023/07/31 07:00:25;;;;;;;9.93;6.88;;;;;;;34.72;71.31;97468.69;4839959;29;20201;-67
2023/07/31 07:02:54;;;;;;;18.02;9.50;;;;;;;34.70;76.08;97467.47;4836940;29;20045;-66
2023/07/31 07:05:24;;;;;;;9.95;7.18;;;;;;;34.61;77.82;97469.75;4805230;29;20046;-67
2023/07/31 07:07:54;;;;;;;9.88;7.22;;;;;;;34.48;75.13;97468.44;4821160;29;20137;-67
2023/07/31 07:10:23;;;;;;;11.48;7.72;;;;;;;34.28;78.01;97471.41;4821973;29;20663;-67
2023/07/31 07:12:55;;;;;;;11.02;8.20;;;;;;;34.05;78.03;97469.94;4824885;29;20065;-67
2023/07/31 07:15:24;;;;;;;11.32;7.68;;;;;;;33.97;78.69;97471.03;4840730;29;20075;-67
2023/07/31 07:17:56;;;;;;;9.48;7.30;;;;;;;33.98;82.33;97469.88;4832078;29;20066;-67
2023/07/31 07:20:26;;;;;;;14.20;6.85;;;;;;;33.80;84.51;97469.66;4838356;29;20050;-67
2023/07/31 07:22:56;;;;;;;11.25;7.30;;;;;;;33.80;81.28;97461.44;4828364;29;20049;-67
2023/07/31 07:25:26;;;;;;;9.88;7.85;;;;;;;33.78;79.08;97459.03;4827566;29;20061;-67
2023/07/31 07:27:55;;;;;;;9.18;7.20;;;;;;;33.79;80.46;97466.13;4835354;29;20085;-67
2023/07/31 07:30:25;;;;;;;13.43;7.78;;;;;;;33.84;81.20;97465.81;4844142;29;20120;-67
2023/07/31 07:32:54;;;;;;;17.85;8.65;;;;;;;33.81;79.90;97460.28;4844823;29;20538;-66
2023/07/31 07:35:24;;;;;;;13.27;8.43;;;;;;;33.80;82.25;97467.72;4843293;29;20867;-67
2023/07/31 07:37:53;;;;;;;12.82;8.07;;;;;;;33.68;78.86;97459.69;4831768;29;20070;-67
2023/07/31 07:40:22;;;;;;;13.15;8.18;;;;;;;33.62;78.50;97452.94;4832227;29;20045;-68
2023/07/31 07:42:52;;;;;;;12.05;7.72;;;;;;;33.69;80.76;97463.25;4817092;29;20130;-67
2023/07/31 07:45:21;;;;;;;10.02;8.50;;;;;;;33.45;80.78;97456.25;4832697;29;20795;-67
2023/07/31 07:47:51;;;;;;;10.57;8.10;;;;;;;33.44;82.28;97451.94;4829001;29;20061;-67
2023/07/31 07:50:21;;;;;;;15.90;8.85;;;;;;;33.21;84.08;97445.72;4808394;29;20061;-67
2023/07/31 07:52:51;;;;;;;12.43;8.75;;;;;;;33.20;84.89;97453.16;4825903;29;20296;-67
2023/07/31 07:55:20;;;;;;;12.82;8.60;;;;;;;33.21;84.33;97443.78;4840778;29;20173;-67
2023/07/31 07:57:50;;;;;;;11.38;8.32;;;;;;;33.20;83.81;97455.13;4840604;29;20053;-67
2023/07/31 08:00:19;;;;;;;13.90;8.70;;;;;;;33.12;83.88;97453.41;4835829;29;20045;-67
2023/07/31 08:02:49;;;;;;;13.25;7.75;;;;;;;33.14;81.34;97442.88;4841941;29;20084;-68
2023/07/31 08:05:19;;;;;;;14.93;8.95;;;;;;;33.17;81.36;97442.16;4840993;29;20049;-67
2023/07/31 08:07:49;;;;;;;8.38;6.93;;;;;;;33.21;82.42;97440.22;4842647;29;20046;-67
2023/07/31 08:10:22;;;;;;;11.55;7.63;;;;;;;33.28;82.63;97434.88;4826704;29;20058;-67
2023/07/31 08:12:51;;;;;;;9.70;7.88;;;;;;;33.23;82.31;97437.94;4840020;29;20056;-67
2023/07/31 08:15:21;;;;;;;15.88;9.73;;;;;;;33.13;81.98;97433.03;4842891;29;20046;-67
2023/07/31 08:17:51;;;;;;;14.20;8.85;;;;;;;33.12;80.95;97429.50;4844325;29;20053;-68
2023/07/31 08:20:20;;;;;;;17.10;9.05;;;;;;;33.14;81.93;97431.88;4841388;29;20057;-67
2023/07/31 08:22:50;;;;;;;13.77;9.45;;;;;;;33.11;87.61;97427.13;4840061;29;20373;-68
2023/07/31 08:25:19;;;;;;;12.13;10.05;;;;;;;32.98;92.15;97424.59;4838943;29;20190;-67
2023/07/31 08:27:52;;;;;;;13.77;9.23;;;;;;;32.97;87.59;97419.50;4838124;29;20773;-67
2023/07/31 08:30:22;;;;;;;15.73;9.27;;;;;;;33.05;83.89;97423.94;4824882;29;20549;-67
2023/07/31 08:32:53;;;;;;;13.38;8.70;;;;;;;33.05;86.39;97412.94;4837857;29;20049;-67
2023/07/31 08:35:24;;;;;;;13.55;9.55;;;;;;;33.09;81.75;97411.03;4840515;29;20615;-67
2023/07/31 08:37:54;;;;;;;12.45;9.43;;;;;;;33.24;83.08;97401.84;4839837;29;20137;-67
2023/07/31 08:40:24;;;;;;;13.43;8.80;;;;;;;33.30;84.04;97397.63;4836632;29;20067;-67
2023/07/31 08:42:56;;;;;;;13.00;7.70;;;;;;;33.45;79.62;97397.81;4828993;29;20076;-67
2023/07/31 08:45:26;;;;;;;12.63;8.98;;;;;;;33.55;80.47;97394.41;4836328;29;20054;-67
2023/07/31 08:47:57;;;;;;;16.73;8.82;;;;;;;33.59;81.50;97389.75;4840661;29;20773;-69
2023/07/31 08:50:27;;;;;;;13.95;8.35;;;;;;;33.63;81.65;97382.34;4836758;29;20138;-67
2023/07/31 08:52:57;;;;;;;9.88;8.93;;;;;;;33.67;79.83;97384.00;4836232;29;20053;-67
2023/07/31 08:55:28;;;;;;;11.68;8.75;;;;;;;33.92;78.38;97372.44;4840531;29;20703;-67
2023/07/31 08:57:59;;;;;;;10.05;8.15;;;;;;;34.16;80.05;97369.16;4842076;29;20056;-67
2023/07/31 09:00:29;;;;;;;15.75;8.25;;;;;;;34.41;76.96;97363.88;4824711;29;20738;-67
2023/07/31 09:03:15;;;;;;;10.18;7.93;;;;;;;34.48;76.15;97370.22;4836900;29;20042;-67
2023/07/31 09:05:47;;;;;;;12.82;7.47;;;;;;;34.47;73.68;97362.38;4838444;29;20209;-67
2023/07/31 09:08:20;;;;;;;9.05;7.13;;;;;;;34.43;75.26;97356.84;4839873;29;20046;-67
2023/07/31 09:10:50;;;;;;;13.80;7.50;;;;;;;34.39;76.97;97353.25;4827026;29;20061;-67
2023/07/31 09:13:19;;;;;;;8.70;7.20;;;;;;;34.44;77.96;97346.63;4840742;29;20049;-67
2023/07/31 09:15:53;;;;;;;10.02;7.72;;;;;;;34.51;74.65;97354.94;4827216;29;20439;-67
2023/07/31 09:18:23;;;;;;;11.18;7.53;;;;;;;34.49;73.67;97351.75;4838747;29;20137;-67
2023/07/31 09:21:07;;;;;;;8.45;7.10;;;;;;;34.63;71.49;97349.13;4834550;29;20398;-67
2023/07/31 09:23:45;;;;;;;8.63;7.53;;;;;;;34.71;71.15;97342.50;4837229;29;20053;-67
2023/07/31 09:26:32;;;;;;;10.82;6.68;;;;;;;34.83;68.57;97333.16;4835838;29;20908;-67
2023/07/31 09:29:07;;;;;;;8.82;6.53;;;;;;;34.81;71.01;97332.75;4829845;29;20117;-68
2023/07/31 09:31:44;;;;;;;9.30;6.78;;;;;;;34.91;73.22;97327.31;4838653;29;20076;-67
2023/07/31 09:34:16;;;;;;;10.23;7.75;;;;;;;35.00;70.90;97318.69;4823844;29;20049;-68
2023/07/31 09:36:47;;;;;;;10.48;6.88;;;;;;;34.97;70.32;97317.50;4822606;29;20479;-67
2023/07/31 09:39:19;;;;;;;11.57;7.83;;;;;;;35.02;70.35;97311.63;4827245;29;20163;-67
2023/07/31 09:41:58;;;;;;;9.88;8.07;;;;;;;35.07;69.80;97307.72;4839446;29;20304;-67
2023/07/31 09:44:41;;;;;;;9.30;6.90;;;;;;;35.06;69.92;97303.38;4824331;29;20073;-68
2023/07/31 09:47:25;;;;;;;;;;;;;;;35.13;68.04;97295.16;4825887;29;20390;-67
2023/07/31 09:49:55;;;;;;;10.57;6.43;;;;;;;35.09;68.54;97291.59;4822718;29;20466;-67
2023/07/31 09:52:27;;;;;;;9.07;5.90;;;;;;;35.06;68.73;97290.41;4838255;29;20156;-68
2023/07/31 09:54:56;;;;;;;11.32;5.78;;;;;;;35.04;68.56;97292.78;4824901;29;20137;-68
2023/07/31 09:57:27;;;;;;;7.45;5.40;;;;;;;34.99;67.59;97292.34;4841393;29;20134;-67
2023/07/31 09:59:58;;;;;;;8.10;5.80;;;;;;;35.02;70.20;97286.06;4824174;29;20057;-67
2023/07/31 10:02:39;;;;;;;8.65;5.60;;;;;;;34.99;71.12;97275.84;4835534;29;20068;-67
2023/07/31 10:05:09;;;;;;;7.75;6.20;;;;;;;34.96;73.22;97274.66;4838957;29;20476;-67
2023/07/31 10:07:42;;;;;;;8.90;6.22;;;;;;;34.98;71.38;97274.25;4838585;29;20167;-68
2023/07/31 10:10:14;;;;;;;9.93;5.63;;;;;;;34.99;71.02;97273.09;4828766;29;20553;-68
2023/07/31 10:12:46;;;;;;;9.15;6.13;;;;;;;34.96;71.17;97273.88;4837934;29;20130;-67
2023/07/31 10:15:16;;;;;;;11.60;6.07;;;;;;;34.97;69.98;97276.22;4820476;29;20053;-67
2023/07/31 10:17:50;;;;;;;9.55;6.05;;;;;;;35.00;68.70;97275.47;4828558;29;20050;-68
2023/07/31 10:20:22;;;;;;;8.95;6.10;;;;;;;34.99;70.73;97270.34;4840471;29;20118;-67
2023/07/31 10:22:55;;;;;;;8.50;5.55;;;;;;;34.95;69.19;97264.81;4823295;29;20662;-68
2023/07/31 10:25:27;;;;;;;14.52;5.97;;;;;;;34.89;68.30;97260.84;4839788;29;20513;-67
2023/07/31 10:27:58;;;;;;;9.52;5.78;;;;;;;34.72;70.79;97261.56;4841091;29;20696;-68
2023/07/31 10:30:30;;;;;;;9.45;5.57;;;;;;;34.70;69.96;97259.19;4836577;29;20054;-68
2023/07/31 10:33:00;;;;;;;11.38;6.28;;;;;;;34.69;69.18;97249.38;4833804;29;20149;-68
2023/07/31 10:35:30;;;;;;;12.95;6.25;;;;;;;34.57;70.05;97237.88;4841412;29;20447;-68
2023/07/31 10:38:26;;;;;;;14.25;6.18;;;;;;;34.42;71.11;97242.53;4836034;29;20092;-68
2023/07/31 10:41:09;;;;;;;11.65;7.00;;;;;;;34.36;70.23;97241.28;4830170;29;20160;-68
2023/07/31 10:43:39;;;;;;;8.23;5.72;;;;;;;34.25;70.78;97235.75;4838246;29;20049;-68
2023/07/31 10:46:09;;;;;;;12.93;6.70;;;;;;;34.17;71.04;97228.59;4825832;29;20515;-68
2023/07/31 10:48:41;;;;;;;9.23;5.82;;;;;;;34.10;71.93;97225.00;4822908;29;20067;-68
2023/07/31 10:51:13;;;;;;;6.07;4.45;;;;;;;34.10;73.30;97230.50;4836244;29;20049;-68
2023/07/31 10:53:43;;;;;;;8.40;5.38;;;;;;;34.14;73.48;97225.81;4835485;29;20054;-68
2023/07/31 10:56:19;;;;;;;8.95;6.47;;;;;;;34.22;72.11;97220.00;4822137;29;20064;-67
2023/07/31 10:59:04;;;;;;;9.73;6.18;;;;;;;34.20;74.83;97218.81;4826945;29;20274;-67
2023/07/31 11:02:24;;;;;;;8.68;4.88;;;;;;;34.18;74.24;97218.41;4505134;29;10000942;-68
2023/07/31 11:05:07;;;;;;;12.40;4.68;;;;;;;34.11;76.81;97215.59;4839773;29;20133;-68
2023/07/31 11:07:48;;;;;;;10.68;5.53;;;;;;;33.98;78.50;97223.38;4842035;29;20058;-68
2023/07/31 11:10:19;;;;;;;10.35;5.60;;;;;;;33.97;79.04;97218.25;4842617;29;20074;-67
2023/07/31 11:12:49;;;;;;;9.45;5.85;;;;;;;34.03;76.33;97217.50;4822460;29;20056;-67
2023/07/31 11:15:21;;;;;;;10.13;5.97;;;;;;;34.11;75.48;97210.09;4827912;29;20061;-66
2023/07/31 11:17:50;;;;;;;9.80;4.88;;;;;;;34.19;74.97;97209.78;4838088;29;20057;-67
2023/07/31 11:20:20;;;;;;;10.73;5.68;;;;;;;34.31;74.28;97208.66;4840415;29;20552;-68
2023/07/31 11:22:49;;;;;;;4.85;4.30;;;;;;;34.33;76.32;97205.53;4838586;29;20053;-68
2023/07/31 11:25:23;;;;;;;8.63;4.40;;;;;;;34.23;76.01;97209.81;4836999;29;20233;-69
2023/07/31 11:27:54;;;;;;;9.50;5.20;;;;;;;34.13;76.40;97207.72;4839808;29;20157;-68
2023/07/31 11:30:25;;;;;;;7.83;4.37;;;;;;;34.14;78.39;97201.88;4504218;29;10000118;-68
2023/07/31 11:32:56;;;;;;;11.50;4.90;;;;;;;34.18;76.61;97186.22;4840904;29;20546;-69
2023/07/31 11:35:32;;;;;;;8.02;4.68;;;;;;;34.23;76.68;97185.06;4830025;29;20538;-68
2023/07/31 11:38:02;;;;;;;7.53;4.25;;;;;;;34.21;76.65;97182.69;4837031;29;20083;-68
2023/07/31 11:40:40;;;;;;;7.97;4.30;;;;;;;34.17;76.62;97195.63;4820733;29;20061;-67
2023/07/31 11:43:17;;;;;;;10.02;5.63;;;;;;;34.18;74.80;97188.16;4821803;29;20054;-67